Aviation Digital Data Service (ADDS)

Output produced by TAFs form (2351 UTC 18 February 2018)
found at http://www.aviationweather.gov/adds/tafs/
 
METAR text: RJSC 182300Z VRB03KT 9999 FEW025 SCT035 BKN040 M06/M08 Q1021
Conditions at: RJSC (YAMAGATA(CIV/JGS, JP) observed 2300 UTC 18 February 2018
Temperature: -6.0°C (21°F)
Dewpoint: -8.0°C (18°F) [RH = 86%]
Pressure (altimeter): 30.15 inches Hg (1021.0 mb)
Winds: variable direction winds at 3 MPH (3 knots; 1.6 m/s)
Visibility: 6 or more miles (10+ km)
Ceiling: 4000 feet AGL
Clouds: few clouds at 2500 feet AGL
scattered clouds at 3500 feet AGL
broken clouds at 4000 feet AGL
Weather: no significant weather observed at this time